createdAt,value
2022-12-25T00:06:20.820Z,8
2022-12-25T00:16:21.133Z,8.2
2022-12-25T00:26:21.901Z,8.3
2022-12-25T00:36:22.290Z,8.5
2022-12-25T00:46:22.884Z,8.6
2022-12-25T00:56:22.909Z,8.7
2022-12-25T01:06:23.778Z,8.7
2022-12-25T01:16:24.119Z,8.7
2022-12-25T01:26:24.102Z,8.8
2022-12-25T01:36:24.742Z,8.8
2022-12-25T01:56:25.780Z,8.9
2022-12-25T02:06:25.857Z,8.9
2022-12-25T02:16:26.184Z,8.9
2022-12-25T02:26:26.749Z,8.9
2022-12-25T02:36:27.696Z,8.9
2022-12-25T02:46:28.143Z,9
2022-12-25T02:56:29.053Z,9.1
2022-12-25T03:06:29.667Z,9.1
2022-12-25T03:26:30.389Z,9.1
2022-12-25T03:36:31.333Z,9
2022-12-25T03:46:31.726Z,8.9
2022-12-25T03:56:32.088Z,8.9
2022-12-25T04:06:32.889Z,9
2022-12-25T04:16:33.483Z,8.9
2022-12-25T04:26:33.771Z,8.9
2022-12-25T04:36:33.898Z,8.9
2022-12-25T04:46:34.624Z,8.9
2022-12-25T04:56:37.458Z,8.9
2022-12-25T05:16:35.734Z,8.8
2022-12-25T05:26:36.264Z,8.8
2022-12-25T05:36:36.767Z,8.7
2022-12-25T05:46:36.935Z,8.7
2022-12-25T05:56:37.430Z,8.8
2022-12-25T06:06:37.526Z,8.7
2022-12-25T06:16:38.660Z,8.6
2022-12-25T06:26:38.629Z,8.6
2022-12-25T06:36:39.206Z,8.6
2022-12-25T06:46:40.017Z,8.7
2022-12-25T06:56:41.016Z,8.6
2022-12-25T07:06:42.032Z,8.7
2022-12-25T07:16:42.629Z,8.7
2022-12-25T07:26:43.376Z,8.7
2022-12-25T07:36:43.494Z,8.6
2022-12-25T07:46:44.534Z,8.6
2022-12-25T07:56:45.283Z,8.7
2022-12-25T08:06:45.649Z,8.8
2022-12-25T08:16:46.599Z,8.8
2022-12-25T08:26:47.374Z,8.7
2022-12-25T08:36:48.117Z,8.6
2022-12-25T08:46:48.440Z,8.7
2022-12-25T08:56:49.170Z,8.8
2022-12-25T09:06:50.117Z,8.7
2022-12-25T09:16:50.392Z,8.6
2022-12-25T09:36:51.959Z,9.2
2022-12-25T09:46:52.927Z,9.3
2022-12-25T09:56:53.093Z,9.3
2022-12-25T10:06:54.111Z,9.3
2022-12-25T10:16:54.814Z,9.3
2022-12-25T10:26:55.547Z,9.3
2022-12-25T10:36:55.874Z,9.4
2022-12-25T10:46:56.256Z,9.4
2022-12-25T10:56:57.248Z,9.5
2022-12-25T11:06:58.249Z,9.6
2022-12-25T11:16:58.420Z,9.6
2022-12-25T11:36:59.750Z,9.7
2022-12-25T11:46:59.895Z,9.7
2022-12-25T11:57:00.769Z,9.8
2022-12-25T12:07:01.249Z,9.8
2022-12-25T12:27:02.544Z,9.8
2022-12-25T12:37:02.621Z,9.8
2022-12-25T12:47:03.503Z,9.9
2022-12-25T12:57:03.760Z,9.9
2022-12-25T13:07:04.211Z,9.9
2022-12-25T13:17:04.622Z,10
2022-12-25T13:27:04.681Z,10
2022-12-25T13:37:04.944Z,10
2022-12-25T13:47:05.463Z,9.9
2022-12-25T13:57:05.827Z,9.9
2022-12-25T14:07:06.795Z,9.8
2022-12-25T14:17:06.908Z,9.8
2022-12-25T14:27:07.633Z,9.9
2022-12-25T14:37:07.947Z,9.9
2022-12-25T14:47:08.985Z,9.8
2022-12-25T14:57:09.665Z,9.8
2022-12-25T15:17:11.096Z,9.8
2022-12-25T15:27:11.982Z,9.8
2022-12-25T15:37:12.789Z,9.9
2022-12-25T15:47:13.521Z,10
2022-12-25T15:57:14.323Z,10.1
2022-12-25T16:07:14.631Z,10.1
2022-12-25T16:17:14.780Z,10.1
2022-12-25T16:27:15.210Z,10.2
2022-12-25T16:37:15.408Z,10.3
2022-12-25T16:47:15.678Z,10.3
2022-12-25T16:57:16.079Z,10.3
2022-12-25T17:07:16.188Z,10.4
2022-12-25T17:17:17.062Z,10.5
2022-12-25T17:27:17.427Z,10.5
2022-12-25T17:37:18.455Z,10.5
2022-12-25T17:57:20.029Z,10.7
2022-12-25T18:07:20.224Z,11.2
2022-12-25T18:17:20.735Z,11.9
2022-12-25T18:37:22.095Z,12
2022-12-25T18:47:22.191Z,11.8
2022-12-25T18:57:22.408Z,11.6
2022-12-25T19:07:22.731Z,11.5
2022-12-25T19:17:26.667Z,11.6
2022-12-25T19:27:23.847Z,11.4
2022-12-25T19:37:23.882Z,11.2
2022-12-25T20:07:26.508Z,10.8
2022-12-25T20:17:26.691Z,10.8
2022-12-25T20:27:26.892Z,10.7
2022-12-25T20:37:27.171Z,10.7
2022-12-25T20:47:27.426Z,10.7
2022-12-25T20:57:28.056Z,10.8
2022-12-25T21:07:28.215Z,10.8
2022-12-25T21:17:28.775Z,10.9
2022-12-25T21:27:29.219Z,11
2022-12-25T21:37:29.753Z,11
2022-12-25T21:47:59.628Z,11
2022-12-25T21:57:31.025Z,10.9
2022-12-25T22:07:31.460Z,10.9
2022-12-25T22:17:32.179Z,10.8
2022-12-25T22:27:32.605Z,10.8
2022-12-25T22:37:33.609Z,10.8
2022-12-25T22:47:39.020Z,10.9
2022-12-25T22:47:44.293Z,10.8
2022-12-25T22:57:45.146Z,10.8
2022-12-25T23:07:45.916Z,10.8
2022-12-25T23:17:46.265Z,10.8
2022-12-25T23:27:46.723Z,10.8
2022-12-25T23:37:47.322Z,10.8
2022-12-25T23:47:47.974Z,10.8
